Gran Canaria, Spain
Current Conditions -  °F | °C
As of 8:30 PM on Thursday 20 Nov 2014 (Local Time) from GCLP Reporting Station
Scattered Clouds Scattered Clouds  
Wind Chill: 64°   Ceiling: Unl
Heat Index: 64°   Visibility: 6mi
Dew Point: 55°   Wind: 8mph
Humidity: 73%   Direction: 180°S
Pressure: 29.68"   Gusts: NA
Location:  28.14°N, 15.43°W
Report Text: GCLP 202030Z 18007KT 9999 FEW018 SCT040 18/13 Q1005 NOSIG
Loading
Personal Weather Stations






























Interactive Weather Map New forecast layout! Learn more

10-Day Weather Forecast

Advertisements
Track Severe Weather on mobile